Time;durP1;ratioP1;P1;durP2;ratioP2;P2;SDS_P1;SDS_P2;PMS_P1;PMS_P2;Temp;Humidity;BMP_temperature;BMP_pressure;BME280_temperature;BME280_humidity;BME280_pressure;Samples;Min_cycle;Max_cycle;Signal;HPM_P1;HPM_P2
2021/01/24 00:00:22;;;;;;;16.47;12.57;;;2.80;99.90;;;;;;5034737;28;20426;-47
2021/01/24 00:02:48;;;;;;;15.03;12.37;;;2.80;99.90;;;;;;5017807;28;20187;-50
2021/01/24 00:05:13;;;;;;;13.30;11.17;;;2.70;99.90;;;;;;5035523;28;20194;-50
2021/01/24 00:07:39;;;;;;;15.23;11.87;;;2.70;99.90;;;;;;5034922;28;20172;-49
2021/01/24 00:10:05;;;;;;;12.93;11.27;;;2.70;99.90;;;;;;5035486;28;20184;-58
2021/01/24 00:12:31;;;;;;;13.03;10.60;;;2.60;99.90;;;;;;5035419;28;20175;-52
2021/01/24 00:14:57;;;;;;;13.03;10.90;;;2.60;99.90;;;;;;5034261;28;20478;-48
2021/01/24 00:17:22;;;;;;;13.47;10.97;;;2.70;99.90;;;;;;5034249;28;20712;-49
2021/01/24 00:19:48;;;;;;;12.13;10.23;;;2.70;99.90;;;;;;5035169;28;20664;-48
2021/01/24 00:22:13;;;;;;;12.03;10.23;;;2.70;99.90;;;;;;5017346;28;20195;-49
2021/01/24 00:24:39;;;;;;;13.70;10.93;;;2.70;99.90;;;;;;5034568;28;20180;-55
2021/01/24 00:27:04;;;;;;;12.87;10.37;;;2.70;99.90;;;;;;5034992;28;20689;-53
2021/01/24 00:29:30;;;;;;;12.23;10.07;;;2.70;99.90;;;;;;5034697;28;20232;-53
2021/01/24 00:31:55;;;;;;;12.37;10.17;;;2.70;99.90;;;;;;5035025;28;20618;-48
2021/01/24 00:34:21;;;;;;;12.03;9.43;;;2.70;99.90;;;;;;5035394;28;20648;-57
2021/01/24 00:36:46;;;;;;;12.30;9.90;;;2.80;99.90;;;;;;5034274;28;20188;-50
2021/01/24 00:39:12;;;;;;;13.33;10.70;;;2.70;99.90;;;;;;5035510;28;20200;-55
2021/01/24 00:41:37;;;;;;;12.67;10.43;;;2.70;99.90;;;;;;5034703;28;20600;-57
2021/01/24 00:44:03;;;;;;;11.33;9.33;;;2.70;99.90;;;;;;5034801;28;20275;-55
2021/01/24 00:46:29;;;;;;;11.67;10.20;;;2.70;99.90;;;;;;5035042;28;20179;-52
2021/01/24 00:48:54;;;;;;;11.87;9.90;;;2.80;99.90;;;;;;5034776;28;20198;-47
2021/01/24 00:51:20;;;;;;;11.47;9.53;;;2.80;99.90;;;;;;5035223;28;20175;-47
2021/01/24 00:53:46;;;;;;;12.43;10.37;;;2.70;99.90;;;;;;5034162;28;20246;-50
2021/01/24 00:56:11;;;;;;;11.90;10.00;;;2.70;99.90;;;;;;5034715;28;20203;-49
2021/01/24 00:58:37;;;;;;;12.00;10.00;;;2.70;99.90;;;;;;5033875;28;20762;-49
2021/01/24 01:01:03;;;;;;;11.83;9.67;;;2.70;99.90;;;;;;5034821;28;20182;-47
2021/01/24 01:03:28;;;;;;;11.93;9.80;;;2.80;99.90;;;;;;5034185;28;20269;-54
2021/01/24 01:05:54;;;;;;;11.83;9.30;;;2.90;99.90;;;;;;5034413;28;20198;-49
2021/01/24 01:08:19;;;;;;;12.00;10.37;;;2.90;99.90;;;;;;5034229;28;20191;-49
2021/01/24 01:10:45;;;;;;;14.03;10.57;;;2.90;99.90;;;;;;5034233;28;20191;-49
2021/01/24 01:13:11;;;;;;;14.43;11.57;;;3.00;99.90;;;;;;5034005;28;20684;-48
2021/01/24 01:15:37;;;;;;;14.43;11.60;;;2.90;99.90;;;;;;5031515;28;20513;-52
2021/01/24 01:18:03;;;;;;;14.20;10.90;;;2.90;99.90;;;;;;5033778;28;20191;-52
2021/01/24 01:20:28;;;;;;;13.87;11.33;;;2.80;99.90;;;;;;5031516;28;20183;-53
2021/01/24 01:22:54;;;;;;;16.20;11.83;;;2.80;99.90;;;;;;5033665;28;20556;-49
2021/01/24 01:25:20;;;;;;;13.27;10.90;;;2.80;99.90;;;;;;5033366;28;20214;-47
2021/01/24 01:27:45;;;;;;;13.33;10.60;;;2.80;99.90;;;;;;5033576;28;20196;-47
2021/01/24 01:30:11;;;;;;;12.67;10.63;;;2.80;99.90;;;;;;5030658;28;20228;-50
2021/01/24 01:32:37;;;;;;;13.87;11.27;;;2.70;99.90;;;;;;5033528;28;20237;-50
2021/01/24 01:35:04;;;;;;;15.23;11.83;;;2.70;99.90;;;;;;5032996;28;20469;-53
2021/01/24 01:37:30;;;;;;;12.93;10.63;;;2.70;99.90;;;;;;5033283;28;20180;-50
2021/01/24 01:39:55;;;;;;;13.87;11.33;;;2.70;99.90;;;;;;5033967;28;20426;-47
2021/01/24 01:42:21;;;;;;;13.47;10.57;;;2.70;99.90;;;;;;5032981;28;20314;-49
2021/01/24 01:44:47;;;;;;;14.43;11.50;;;2.60;99.90;;;;;;5030903;28;20194;-57
2021/01/24 01:47:24;;;;;;;12.40;9.47;;;2.60;99.90;;;;;;5033105;28;20655;-53
2021/01/24 01:49:53;;;;;;;12.17;10.37;;;2.50;99.90;;;;;;5031057;28;20305;-52
2021/01/24 01:52:21;;;;;;;13.73;10.47;;;2.50;99.90;;;;;;5033988;28;20414;-52
2021/01/24 01:54:48;;;;;;;12.73;9.90;;;2.60;99.90;;;;;;5033188;28;21004;-48
2021/01/24 01:57:14;;;;;;;12.67;10.37;;;2.70;99.90;;;;;;5033093;28;20418;-49
2021/01/24 01:59:40;;;;;;;14.60;10.00;;;2.80;99.90;;;;;;5030879;28;20458;-48
2021/01/24 02:02:26;;;;;;;13.43;10.53;;;2.80;99.90;;;;;;5033579;28;20202;-53
2021/01/24 02:05:06;;;;;;;14.50;12.00;;;2.80;99.90;;;;;;5034148;28;20635;-50
2021/01/24 02:07:32;;;;;;;13.60;10.27;;;2.80;99.90;;;;;;5033050;28;20778;-49
2021/01/24 02:10:19;;;;;;;12.17;10.07;;;2.70;99.90;;;;;;5033526;28;20431;-49
2021/01/24 02:12:48;;;;;;;12.70;9.83;;;2.60;99.90;;;;;;5033261;28;20188;-48
2021/01/24 02:15:19;;;;;;;12.43;9.80;;;2.60;99.90;;;;;;5030932;28;20576;-47
2021/01/24 02:17:52;;;;;;;12.30;9.97;;;2.60;99.90;;;;;;5032541;28;20918;-47
2021/01/24 02:20:32;;;;;;;13.87;10.97;;;2.60;99.90;;;;;;5030930;28;20537;-50
2021/01/24 02:22:58;;;;;;;12.63;10.13;;;2.60;99.90;;;;;;5032808;28;20463;-52
2021/01/24 02:25:42;;;;;;;14.50;10.60;;;2.60;99.90;;;;;;5033631;28;20471;-52
2021/01/24 02:28:37;;;;;;;13.00;10.67;;;2.70;99.90;;;;;;5033025;28;20199;-58
2021/01/24 02:31:04;;;;;;;13.67;10.83;;;2.50;99.90;;;;;;4962416;28;20485;-47
2021/01/24 02:33:31;;;;;;;13.27;10.53;;;2.30;99.90;;;;;;5033626;28;20504;-48
2021/01/24 02:36:00;;;;;;;12.23;10.27;;;2.10;99.90;;;;;;5033005;28;20419;-48
2021/01/24 02:38:26;;;;;;;12.00;9.80;;;2.00;99.90;;;;;;5033553;28;20426;-50
2021/01/24 02:40:53;;;;;;;13.07;10.50;;;2.10;99.90;;;;;;5035444;28;20403;-51
2021/01/24 02:43:20;;;;;;;12.87;10.73;;;2.10;99.90;;;;;;5036985;28;20410;-58
2021/01/24 02:45:48;;;;;;;13.60;10.33;;;2.20;99.90;;;;;;5036926;28;20398;-53
2021/01/24 02:48:16;;;;;;;16.23;11.07;;;2.30;99.90;;;;;;5038171;28;20913;-49
2021/01/24 02:50:44;;;;;;;13.87;11.83;;;2.40;99.90;;;;;;5037288;28;20409;-52
2021/01/24 02:53:11;;;;;;;13.87;10.10;;;2.40;99.90;;;;;;5037137;28;20418;-49
2021/01/24 02:55:37;;;;;;;12.37;10.23;;;2.40;99.90;;;;;;5037158;28;20430;-49
2021/01/24 02:58:03;;;;;;;12.40;10.17;;;2.40;99.90;;;;;;5036573;28;20500;-52
2021/01/24 03:00:29;;;;;;;12.87;10.67;;;2.40;99.90;;;;;;5036988;28;20190;-57
2021/01/24 03:02:54;;;;;;;12.40;10.27;;;2.40;99.90;;;;;;5036675;28;20520;-48
2021/01/24 03:05:20;;;;;;;13.03;10.53;;;2.50;99.90;;;;;;5036932;28;20605;-46
2021/01/24 03:07:46;;;;;;;13.80;11.17;;;2.60;99.90;;;;;;5037564;28;20190;-48
2021/01/24 03:10:13;;;;;;;13.63;11.00;;;2.80;99.90;;;;;;5036153;28;20190;-55
2021/01/24 03:12:48;;;;;;;12.63;10.67;;;2.90;99.90;;;;;;5037125;28;20439;-47
2021/01/24 03:15:16;;;;;;;13.20;10.80;;;3.00;99.90;;;;;;5036195;28;20898;-49
2021/01/24 03:17:45;;;;;;;14.63;11.23;;;3.10;99.90;;;;;;5036494;28;20403;-58
2021/01/24 03:20:14;;;;;;;15.60;11.87;;;3.10;99.90;;;;;;5036297;28;20879;-47
2021/01/24 03:22:41;;;;;;;13.50;10.90;;;3.00;99.90;;;;;;5037156;28;20407;-51
2021/01/24 03:25:08;;;;;;;15.13;10.97;;;3.10;99.90;;;;;;5019552;28;20462;-49
2021/01/24 03:27:34;;;;;;;15.17;12.20;;;3.10;99.90;;;;;;5035635;28;20778;-51
2021/01/24 03:30:00;;;;;;;13.57;11.30;;;3.10;99.90;;;;;;5036616;28;20457;-49
2021/01/24 03:32:27;;;;;;;13.33;10.73;;;3.10;99.90;;;;;;5036271;28;20542;-51
2021/01/24 03:34:52;;;;;;;13.23;11.00;;;3.00;99.90;;;;;;5036503;28;20680;-56
2021/01/24 03:37:18;;;;;;;14.47;11.60;;;2.90;99.90;;;;;;5036442;28;20422;-49
2021/01/24 03:39:43;;;;;;;12.67;10.23;;;2.80;99.90;;;;;;5034954;28;20203;-47
2021/01/24 03:42:09;;;;;;;13.50;10.90;;;2.90;99.90;;;;;;5037363;28;20524;-47
2021/01/24 03:44:35;;;;;;;14.73;11.53;;;3.00;99.90;;;;;;5035669;28;20243;-48
2021/01/24 03:50:22;;;;;;;14.30;11.33;;;3.10;99.90;;;;;;5033463;28;20246;-50
2021/01/24 03:52:48;;;;;;;13.90;10.83;;;3.10;99.90;;;;;;5033956;28;20421;-55
2021/01/24 03:55:13;;;;;;;15.53;11.93;;;3.10;99.90;;;;;;5034977;28;20211;-50
2021/01/24 03:57:39;;;;;;;14.20;11.27;;;3.10;99.90;;;;;;5035544;28;20180;-49
2021/01/24 04:00:06;;;;;;;15.80;12.23;;;3.20;99.90;;;;;;5033298;28;20795;-52
2021/01/24 04:02:35;;;;;;;13.77;11.00;;;3.20;99.90;;;;;;5033853;28;20199;-49
2021/01/24 04:05:00;;;;;;;14.47;11.27;;;3.20;99.90;;;;;;5035056;28;20430;-52
2021/01/24 04:07:26;;;;;;;16.40;12.63;;;3.20;99.90;;;;;;5034726;28;20411;-50
2021/01/24 04:09:51;;;;;;;15.30;12.10;;;3.20;99.90;;;;;;5032530;28;20282;-56
2021/01/24 04:12:17;;;;;;;15.53;11.90;;;3.20;99.90;;;;;;5034330;28;20199;-49
2021/01/24 04:14:42;;;;;;;16.87;12.83;;;3.20;99.90;;;;;;5035219;28;20234;-49
2021/01/24 04:17:08;;;;;;;15.70;12.53;;;3.20;99.90;;;;;;5034931;28;20211;-52
2021/01/24 04:19:34;;;;;;;17.17;12.83;;;3.30;99.90;;;;;;5034274;28;20212;-52
2021/01/24 04:21:59;;;;;;;20.57;15.00;;;3.20;99.90;;;;;;5032431;28;20539;-47
2021/01/24 04:24:25;;;;;;;18.60;13.50;;;2.90;99.90;;;;;;5034544;28;20190;-51
2021/01/24 04:26:52;;;;;;;19.73;14.50;;;2.80;99.90;;;;;;5034858;28;20652;-49
2021/01/24 04:29:18;;;;;;;18.17;13.97;;;2.70;99.90;;;;;;5034970;28;20200;-51
2021/01/24 04:31:44;;;;;;;20.20;14.97;;;3.60;99.90;;;;;;5032313;28;20545;-52
2021/01/24 04:34:10;;;;;;;25.00;17.10;;;2.50;99.90;;;;;;5034369;28;20210;-51
2021/01/24 04:36:36;;;;;;;21.90;16.13;;;2.50;99.90;;;;;;5034419;28;20415;-50
2021/01/24 04:39:02;;;;;;;23.77;17.07;;;2.50;99.90;;;;;;5032906;28;20456;-48
2021/01/24 04:41:28;;;;;;;22.67;16.30;;;2.30;99.90;;;;;;5033527;28;20219;-55
2021/01/24 04:43:54;;;;;;;25.03;16.90;;;2.30;99.90;;;;;;5034518;28;20461;-49
2021/01/24 04:46:19;;;;;;;26.20;17.43;;;2.30;99.90;;;;;;5034309;28;20268;-47
2021/01/24 04:48:45;;;;;;;24.30;16.83;;;2.30;99.90;;;;;;5032218;28;20581;-47
2021/01/24 04:51:11;;;;;;;24.57;16.47;;;2.40;99.90;;;;;;5034032;28;20226;-49
2021/01/24 04:53:39;;;;;;;26.43;17.90;;;2.30;99.90;;;;;;5034178;28;20204;-58
2021/01/24 04:56:04;;;;;;;24.43;15.93;;;2.30;99.90;;;;;;5034409;28;20187;-56
2021/01/24 04:58:31;;;;;;;27.70;19.33;;;2.40;99.90;;;;;;5034243;28;20435;-57
2021/01/24 05:00:56;;;;;;;25.43;17.27;;;2.30;99.90;;;;;;5034503;28;20199;-48
2021/01/24 05:03:22;;;;;;;24.80;17.37;;;2.30;99.90;;;;;;5033513;28;20469;-48
2021/01/24 05:05:47;;;;;;;25.80;17.23;;;2.30;99.90;;;;;;5033278;28;20662;-51
2021/01/24 05:08:15;;;;;;;25.23;17.27;;;2.30;99.90;;;;;;5034402;28;20199;-49
2021/01/24 05:10:45;;;;;;;24.87;17.03;;;2.30;99.90;;;;;;5033827;28;20612;-48
2021/01/24 05:13:10;;;;;;;24.60;16.53;;;2.40;99.90;;;;;;5034041;28;20771;-49
2021/01/24 05:15:36;;;;;;;23.43;16.43;;;2.50;99.90;;;;;;5034642;28;20904;-51
2021/01/24 05:18:02;;;;;;;21.23;15.57;;;2.70;99.90;;;;;;5034301;28;20577;-51
2021/01/24 05:20:30;;;;;;;25.47;18.13;;;2.80;99.90;;;;;;5034456;28;20241;-47
2021/01/24 05:22:57;;;;;;;22.47;16.27;;;2.80;99.90;;;;;;5033998;28;20414;-51
2021/01/24 05:25:32;;;;;;;22.07;15.47;;;2.70;99.90;;;;;;5034360;28;20798;-57
2021/01/24 05:28:16;;;;;;;25.03;16.60;;;2.70;99.90;;;;;;5034127;28;20422;-51
2021/01/24 05:30:41;;;;;;;21.70;15.87;;;2.60;99.90;;;;;;5034976;28;20460;-52
2021/01/24 05:33:07;;;;;;;22.00;15.13;;;2.60;99.90;;;;;;5034075;28;20411;-52
2021/01/24 05:35:35;;;;;;;21.87;15.47;;;2.50;99.90;;;;;;5033919;28;20218;-49
2021/01/24 05:38:00;;;;;;;23.50;15.70;;;2.40;99.90;;;;;;5034237;28;20176;-50
2021/01/24 05:40:26;;;;;;;22.23;15.77;;;2.30;99.90;;;;;;5033626;28;20410;-51
2021/01/24 05:42:52;;;;;;;22.67;15.53;;;2.10;99.90;;;;;;5034256;28;20222;-53
2021/01/24 05:45:18;;;;;;;23.43;16.23;;;2.10;99.90;;;;;;5032963;28;20188;-53
2021/01/24 05:47:46;;;;;;;22.30;15.73;;;2.00;99.90;;;;;;5034344;28;20403;-47
2021/01/24 05:50:12;;;;;;;24.37;16.87;;;2.00;99.90;;;;;;5033583;28;20524;-46
2021/01/24 05:52:46;;;;;;;22.83;16.23;;;1.90;99.90;;;;;;5033752;28;20777;-54
2021/01/24 05:55:29;;;;;;;21.50;15.57;;;1.90;99.90;;;;;;5034321;28;20470;-58
2021/01/24 05:57:55;;;;;;;25.03;17.13;;;2.00;99.90;;;;;;5032567;28;20457;-58
2021/01/24 06:00:21;;;;;;;23.73;17.30;;;1.90;99.90;;;;;;5033864;28;20761;-53
2021/01/24 06:02:48;;;;;;;25.37;17.67;;;1.90;99.90;;;;;;5032804;28;20242;-47
2021/01/24 06:05:13;;;;;;;26.17;17.93;;;1.80;99.90;;;;;;5033723;28;20422;-52
2021/01/24 06:07:39;;;;;;;23.33;16.97;;;1.80;99.90;;;;;;5033223;28;20406;-49
2021/01/24 06:10:05;;;;;;;23.30;16.03;;;1.80;99.90;;;;;;5033421;28;20199;-51
2021/01/24 06:12:34;;;;;;;22.57;16.30;;;1.80;99.90;;;;;;5031260;28;20286;-50
2021/01/24 06:15:04;;;;;;;22.50;15.97;;;1.80;99.90;;;;;;5033471;28;20462;-47
2021/01/24 06:17:41;;;;;;;20.80;15.33;;;1.70;99.90;;;;;;5036990;28;20414;-57
2021/01/24 06:20:08;;;;;;;24.50;16.77;;;1.70;99.90;;;;;;5036950;28;20432;-49
2021/01/24 06:22:42;;;;;;;22.27;16.17;;;1.60;99.90;;;;;;5037071;28;20425;-47
2021/01/24 06:25:20;;;;;;;21.10;15.77;;;1.60;99.90;;;;;;5037254;28;20901;-49
2021/01/24 06:27:51;;;;;;;21.90;15.63;;;1.70;99.90;;;;;;5018990;28;20437;-48
2021/01/24 06:30:18;;;;;;;21.63;16.17;;;1.60;99.90;;;;;;5036968;28;20786;-47
2021/01/24 06:32:44;;;;;;;20.73;15.03;;;1.70;99.90;;;;;;5019707;28;20426;-57
2021/01/24 06:35:15;;;;;;;21.53;15.47;;;1.70;99.90;;;;;;5036813;28;20457;-55
2021/01/24 06:38:06;;;;;;;20.73;13.90;;;1.80;99.90;;;;;;5036985;28;20232;-47
2021/01/24 06:40:32;;;;;;;20.23;14.80;;;1.90;99.90;;;;;;5037347;28;20452;-52
2021/01/24 06:43:03;;;;;;;21.97;15.30;;;1.90;99.90;;;;;;5037454;28;20399;-47
2021/01/24 06:45:28;;;;;;;19.37;14.03;;;1.90;99.90;;;;;;5037128;28;20164;-56
2021/01/24 06:47:56;;;;;;;21.10;16.37;;;2.00;99.90;;;;;;5036550;28;20413;-56
2021/01/24 06:50:35;;;;;;;23.87;16.40;;;2.00;99.90;;;;;;5037149;28;20175;-56
2021/01/24 06:53:12;;;;;;;22.97;16.10;;;2.00;99.90;;;;;;5036819;28;20403;-48
2021/01/24 06:55:41;;;;;;;25.70;17.30;;;1.90;99.90;;;;;;5036989;28;20917;-52
2021/01/24 06:58:25;;;;;;;24.80;18.00;;;1.90;99.90;;;;;;5035912;28;20977;-49
2021/01/24 07:00:53;;;;;;;23.23;16.60;;;1.90;99.90;;;;;;5036669;28;20727;-47
2021/01/24 07:03:20;;;;;;;23.00;16.33;;;1.90;99.90;;;;;;5036354;28;20414;-50
2021/01/24 07:05:46;;;;;;;21.07;15.97;;;1.90;99.90;;;;;;5037115;28;20411;-57
2021/01/24 07:08:31;;;;;;;21.17;15.27;;;1.90;99.90;;;;;;5036555;28;20433;-55
2021/01/24 07:10:57;;;;;;;17.83;13.23;;;1.80;99.90;;;;;;5036659;28;20406;-47
2021/01/24 07:13:25;;;;;;;15.03;10.67;;;1.80;99.90;;;;;;5036741;28;20805;-54
2021/01/24 07:16:00;;;;;;;18.23;13.00;;;1.80;99.90;;;;;;5036829;28;20168;-53
2021/01/24 07:18:35;;;;;;;14.10;10.50;;;1.80;99.90;;;;;;5036259;28;20437;-49
2021/01/24 07:21:01;;;;;;;16.93;11.97;;;1.80;99.90;;;;;;5036661;28;20441;-49
2021/01/24 07:23:28;;;;;;;12.77;10.33;;;1.90;99.90;;;;;;5035848;28;20467;-47
2021/01/24 07:25:55;;;;;;;11.47;8.20;;;1.80;99.90;;;;;;5035775;28;20194;-54
2021/01/24 07:28:22;;;;;;;10.60;8.50;;;1.80;99.90;;;;;;5018883;28;20767;-49
2021/01/24 07:30:48;;;;;;;11.07;8.77;;;1.70;99.90;;;;;;5035722;28;20498;-49
2021/01/24 07:33:13;;;;;;;7.00;5.80;;;1.60;99.90;;;;;;5036057;28;20521;-55
2021/01/24 07:35:39;;;;;;;7.10;5.40;;;1.50;99.90;;;;;;5035816;28;20225;-52
2021/01/24 07:38:05;;;;;;;6.50;4.90;;;1.60;99.90;;;;;;5030707;28;20294;-54
2021/01/24 07:40:31;;;;;;;6.07;5.00;;;1.70;99.90;;;;;;5035282;28;20195;-51
2021/01/24 07:42:57;;;;;;;5.07;4.00;;;1.80;99.90;;;;;;5029475;28;20176;-54
2021/01/24 07:45:24;;;;;;;4.13;3.70;;;2.00;99.90;;;;;;5024483;28;20187;-50
2021/01/24 07:47:49;;;;;;;5.30;4.00;;;2.10;99.90;;;;;;5035365;28;20415;-49
2021/01/24 07:50:15;;;;;;;4.07;3.43;;;2.20;99.90;;;;;;5035366;28;20480;-50
2021/01/24 07:52:41;;;;;;;4.47;3.47;;;2.60;99.90;;;;;;5035915;28;20631;-55
2021/01/24 07:55:10;;;;;;;3.03;2.70;;;3.80;99.90;;;;;;5034539;28;20618;-50
2021/01/24 07:57:38;;;;;;;2.73;2.53;;;5.30;99.90;;;;;;5035133;28;20674;-56
2021/01/24 08:00:05;;;;;;;2.27;2.07;;;6.40;99.90;;;;;;5034921;28;20192;-53
2021/01/24 08:02:30;;;;;;;2.10;1.90;;;7.60;99.90;;;;;;5035342;28;20183;-52
2021/01/24 08:04:59;;;;;;;1.70;1.60;;;8.60;99.90;;;;;;5035672;28;20222;-48
2021/01/24 08:07:28;;;;;;;1.40;1.30;;;8.90;99.90;;;;;;5034580;28;20192;-53
2021/01/24 08:09:53;;;;;;;1.93;1.43;;;9.20;99.90;;;;;;5035357;28;20683;-52
2021/01/24 08:12:19;;;;;;;1.30;1.20;;;9.70;99.90;;;;;;5034638;28;20171;-48
2021/01/24 08:14:45;;;;;;;0.90;0.90;;;10.80;99.90;;;;;;5035391;28;20702;-59
2021/01/24 08:17:15;;;;;;;1.03;0.93;;;11.00;99.90;;;;;;5033803;28;20183;-54
2021/01/24 08:19:41;;;;;;;1.10;1.10;;;10.00;99.90;;;;;;5032279;28;20245;-57
2021/01/24 08:22:07;;;;;;;11.27;6.13;;;8.20;99.90;;;;;;5000533;28;20636;-50
2021/01/24 08:24:33;;;;;;;1.77;1.67;;;6.80;99.90;;;;;;5034611;28;20184;-50
2021/01/24 08:26:59;;;;;;;1.37;1.27;;;5.80;99.90;;;;;;5034224;28;20182;-47
2021/01/24 08:29:25;;;;;;;1.50;1.40;;;5.30;99.90;;;;;;5035295;28;20199;-55
2021/01/24 08:31:50;;;;;;;1.70;1.60;;;4.90;99.90;;;;;;5034487;28;20176;-48
2021/01/24 08:34:16;;;;;;;1.17;1.17;;;4.60;99.90;;;;;;5034875;28;20200;-49
2021/01/24 08:36:42;;;;;;;4.47;2.90;;;4.50;99.90;;;;;;5034832;28;20182;-49
2021/01/24 08:39:07;;;;;;;1.03;1.03;;;5.30;99.90;;;;;;5034047;28;20714;-54
2021/01/24 08:41:38;;;;;;;2.10;1.17;;;7.20;99.90;;;;;;5034756;28;20168;-57
2021/01/24 08:44:15;;;;;;;1.17;0.90;;;8.50;99.90;;;;;;5034545;28;20180;-48
2021/01/24 08:46:45;;;;;;;0.77;0.77;;;9.70;99.90;;;;;;5034064;28;20183;-53
2021/01/24 08:49:23;;;;;;;0.93;0.93;;;10.20;99.50;;;;;;5034913;28;20195;-48
2021/01/24 08:51:51;;;;;;;0.73;0.70;;;10.80;99.50;;;;;;5034844;28;20168;-50
2021/01/24 08:54:25;;;;;;;0.83;0.80;;;11.00;97.80;;;;;;5034758;28;20250;-54
2021/01/24 08:57:12;;;;;;;0.67;0.67;;;11.00;97.10;;;;;;5033727;28;20198;-50
2021/01/24 08:59:38;;;;;;;0.80;0.80;;;10.80;97.00;;;;;;5034559;28;20199;-49
2021/01/24 09:02:05;;;;;;;0.70;0.70;;;10.40;95.50;;;;;;5033857;28;20191;-47
2021/01/24 09:04:44;;;;;;;0.83;0.83;;;9.50;96.50;;;;;;5034301;28;20164;-51
2021/01/24 09:07:11;;;;;;;0.80;0.80;;;9.30;97.00;;;;;;5030949;28;20262;-48
2021/01/24 09:09:43;;;;;;;1.03;1.00;;;9.60;96.80;;;;;;5031528;28;20218;-54
2021/01/24 09:12:11;;;;;;;0.60;0.60;;;9.90;96.40;;;;;;5032078;28;20184;-51
2021/01/24 09:14:36;;;;;;;0.90;0.90;;;10.60;95.60;;;;;;5032940;28;20612;-48
2021/01/24 09:17:14;;;;;;;0.90;0.90;;;10.70;93.70;;;;;;5033527;28;20644;-53
2021/01/24 09:19:41;;;;;;;0.77;0.77;;;10.70;95.20;;;;;;5027967;28;20211;-53
2021/01/24 09:22:11;;;;;;;1.10;1.10;;;11.00;93.80;;;;;;5033052;28;20645;-58
2021/01/24 09:24:37;;;;;;;0.80;0.80;;;11.20;93.40;;;;;;5015304;28;20205;-53
2021/01/24 09:27:04;;;;;;;1.10;1.10;;;11.10;92.90;;;;;;5033054;28;20168;-49
2021/01/24 09:29:30;;;;;;;1.50;1.00;;;11.10;92.60;;;;;;5030578;28;20982;-54
2021/01/24 09:31:56;;;;;;;1.10;1.00;;;11.60;92.90;;;;;;5032670;28;20173;-49
2021/01/24 09:34:21;;;;;;;0.87;0.87;;;11.50;90.70;;;;;;5015441;28;20210;-56
2021/01/24 09:36:47;;;;;;;0.90;0.90;;;11.30;91.20;;;;;;5033337;28;20171;-54
2021/01/24 09:39:13;;;;;;;0.83;0.83;;;11.00;89.70;;;;;;5013126;28;20679;-51
2021/01/24 09:41:39;;;;;;;0.70;0.70;;;10.50;90.90;;;;;;5032803;28;20635;-53
2021/01/24 09:44:05;;;;;;;1.17;1.07;;;10.40;89.40;;;;;;5032463;28;20198;-53
2021/01/24 09:46:31;;;;;;;1.03;0.97;;;10.20;90.80;;;;;;5015895;28;20619;-50
2021/01/24 09:48:56;;;;;;;1.67;1.07;;;10.30;90.50;;;;;;5012645;28;20211;-50
2021/01/24 09:51:22;;;;;;;1.63;1.17;;;11.30;88.80;;;;;;5033195;28;20735;-52
2021/01/24 09:53:49;;;;;;;0.90;0.80;;;11.80;85.40;;;;;;5032432;28;20199;-53
2021/01/24 09:56:14;;;;;;;0.93;0.93;;;11.80;84.80;;;;;;5031104;28;20181;-51
2021/01/24 09:58:40;;;;;;;1.30;1.20;;;12.20;84.60;;;;;;5030886;28;20198;-54
2021/01/24 10:01:06;;;;;;;1.27;1.17;;;11.60;82.60;;;;;;5030985;28;20668;-47
2021/01/24 10:03:31;;;;;;;1.60;1.13;;;11.20;82.90;;;;;;5033174;28;20188;-46
2021/01/24 10:05:57;;;;;;;1.17;0.90;;;10.70;83.10;;;;;;5032228;28;20195;-52
2021/01/24 10:08:22;;;;;;;1.13;1.10;;;10.20;84.30;;;;;;5013179;28;20211;-50
2021/01/24 10:10:48;;;;;;;2.00;1.53;;;9.50;83.80;;;;;;5032295;28;20180;-49
2021/01/24 10:13:14;;;;;;;1.97;1.70;;;8.20;86.10;;;;;;5032582;28;20525;-51
2021/01/24 10:15:41;;;;;;;2.80;2.60;;;7.60;87.40;;;;;;5001774;28;20195;-49
2021/01/24 10:18:07;;;;;;;3.27;2.97;;;7.60;88.10;;;;;;5028380;28;20182;-53
2021/01/24 10:20:33;;;;;;;2.47;1.60;;;7.90;90.10;;;;;;5028605;28;20279;-49
2021/01/24 10:22:59;;;;;;;2.70;1.83;;;8.90;87.80;;;;;;5031538;28;20184;-52
2021/01/24 10:25:24;;;;;;;1.43;1.33;;;9.40;84.00;;;;;;5029673;28;20273;-49
2021/01/24 10:27:50;;;;;;;1.83;1.57;;;9.80;85.00;;;;;;5027769;28;20241;-52
2021/01/24 10:30:16;;;;;;;1.80;1.70;;;10.30;81.00;;;;;;5030335;28;20703;-49
2021/01/24 10:32:42;;;;;;;1.60;1.50;;;10.20;77.50;;;;;;5026088;28;20199;-49
2021/01/24 10:35:08;;;;;;;1.53;1.43;;;9.40;80.70;;;;;;5026875;28;20200;-52
2021/01/24 10:37:34;;;;;;;1.70;1.60;;;9.60;82.70;;;;;;5027340;28;20230;-55
2021/01/24 10:40:01;;;;;;;2.50;1.90;;;9.50;85.50;;;;;;5029781;28;20556;-51
2021/01/24 10:42:27;;;;;;;1.80;1.70;;;9.50;81.70;;;;;;5033499;28;20172;-55
2021/01/24 10:44:52;;;;;;;1.70;1.60;;;9.30;84.40;;;;;;5032410;28;20258;-50
2021/01/24 10:47:18;;;;;;;2.27;1.60;;;9.40;82.50;;;;;;5032760;28;20648;-56
2021/01/24 10:49:44;;;;;;;1.70;1.60;;;9.30;83.20;;;;;;5032606;28;20222;-52
2021/01/24 10:52:09;;;;;;;2.27;1.80;;;9.10;83.20;;;;;;5032416;28;20180;-48
2021/01/24 10:54:35;;;;;;;1.93;1.70;;;8.70;83.10;;;;;;5032953;28;20543;-50
2021/01/24 10:57:01;;;;;;;2.10;1.50;;;8.30;84.80;;;;;;5031894;28;20984;-57
2021/01/24 10:59:27;;;;;;;1.70;1.60;;;8.20;86.90;;;;;;5033329;28;20184;-49
2021/01/24 11:01:52;;;;;;;1.93;1.60;;;8.30;84.70;;;;;;5035040;28;20192;-47
2021/01/24 11:04:18;;;;;;;1.53;1.43;;;8.20;86.10;;;;;;5036705;28;20180;-47
2021/01/24 11:06:44;;;;;;;1.60;1.50;;;8.50;86.40;;;;;;5035808;28;20202;-54
2021/01/24 11:09:09;;;;;;;1.87;1.73;;;8.70;86.00;;;;;;5036170;28;20651;-50
2021/01/24 11:11:35;;;;;;;1.70;1.60;;;9.00;83.50;;;;;;5036414;28;20230;-55
2021/01/24 11:14:00;;;;;;;1.97;1.80;;;9.00;83.60;;;;;;5035697;28;20200;-51
2021/01/24 11:16:26;;;;;;;1.70;1.60;;;8.60;82.90;;;;;;5036593;28;20167;-53
2021/01/24 11:18:51;;;;;;;1.73;1.63;;;8.70;86.60;;;;;;5028818;28;20208;-48
2021/01/24 11:21:17;;;;;;;2.37;1.93;;;9.20;82.80;;;;;;5016865;28;20528;-48
2021/01/24 11:23:42;;;;;;;1.77;1.67;;;9.00;82.20;;;;;;5016218;28;20240;-55
2021/01/24 11:26:08;;;;;;;3.10;1.80;;;8.70;83.10;;;;;;5016277;28;20576;-48
2021/01/24 11:28:33;;;;;;;1.83;1.70;;;8.50;83.60;;;;;;5016925;28;20200;-52
2021/01/24 11:30:59;;;;;;;1.50;1.40;;;8.00;85.90;;;;;;5016242;28;20188;-51
2021/01/24 11:33:24;;;;;;;1.70;1.60;;;7.40;83.10;;;;;;5016476;28;20185;-46
2021/01/24 11:35:50;;;;;;;1.83;1.70;;;7.10;85.80;;;;;;5016534;28;20168;-53
2021/01/24 11:38:15;;;;;;;1.63;1.53;;;6.80;85.90;;;;;;5016347;28;20188;-46
2021/01/24 11:40:41;;;;;;;1.93;1.80;;;6.50;85.90;;;;;;5016911;28;20525;-46
2021/01/24 11:43:06;;;;;;;2.10;1.50;;;6.30;88.50;;;;;;5028374;28;20694;-57
2021/01/24 11:45:32;;;;;;;1.63;1.53;;;6.60;89.10;;;;;;5036204;28;20644;-53
2021/01/24 11:47:58;;;;;;;1.80;1.70;;;6.60;87.70;;;;;;5035211;28;20180;-46
2021/01/24 11:50:23;;;;;;;1.63;1.50;;;6.70;88.50;;;;;;5035740;28;20171;-50
2021/01/24 11:52:49;;;;;;;2.40;1.57;;;6.40;86.30;;;;;;5035325;28;20190;-50
2021/01/24 11:55:15;;;;;;;1.43;1.30;;;6.20;87.50;;;;;;5035203;28;20697;-47
2021/01/24 11:57:40;;;;;;;1.40;1.30;;;6.30;87.30;;;;;;5034958;28;20286;-47
2021/01/24 12:00:06;;;;;;;6.73;1.50;;;6.10;88.50;;;;;;5036208;28;20258;-48
2021/01/24 12:02:32;;;;;;;1.60;1.50;;;6.00;87.30;;;;;;5032186;28;20254;-47
2021/01/24 12:04:57;;;;;;;1.73;1.47;;;5.70;87.40;;;;;;5034323;28;20199;-48
2021/01/24 12:07:23;;;;;;;2.00;1.50;;;5.60;88.80;;;;;;5033631;28;20187;-50
2021/01/24 12:09:48;;;;;;;1.60;1.40;;;5.60;90.30;;;;;;5032072;28;20575;-46
2021/01/24 12:12:14;;;;;;;2.10;1.60;;;5.60;89.70;;;;;;5016202;28;20199;-55
2021/01/24 12:14:40;;;;;;;1.90;1.80;;;5.50;89.40;;;;;;5027927;28;20220;-57
2021/01/24 12:17:05;;;;;;;1.40;1.30;;;5.40;90.20;;;;;;5034759;28;20684;-46
2021/01/24 12:19:31;;;;;;;1.77;1.67;;;5.30;90.30;;;;;;5034401;28;20244;-54
2021/01/24 12:21:56;;;;;;;1.83;1.67;;;5.20;90.50;;;;;;5034432;28;20180;-49
2021/01/24 12:24:22;;;;;;;1.73;1.60;;;5.10;90.90;;;;;;5025084;28;20168;-55
2021/01/24 12:26:47;;;;;;;2.03;1.53;;;5.00;91.00;;;;;;5026614;28;20203;-50
2021/01/24 12:29:13;;;;;;;1.97;1.50;;;5.00;92.00;;;;;;5034679;28;20199;-50
2021/01/24 12:31:38;;;;;;;1.83;1.73;;;5.30;91.70;;;;;;5034508;28;20258;-53
2021/01/24 12:34:04;;;;;;;3.07;1.83;;;5.70;91.00;;;;;;5034581;28;20243;-52
2021/01/24 12:36:29;;;;;;;1.90;1.80;;;6.10;90.60;;;;;;5034466;28;20179;-46
2021/01/24 12:38:55;;;;;;;1.53;1.43;;;6.10;90.10;;;;;;5034891;28;20238;-51
2021/01/24 12:41:20;;;;;;;1.70;1.60;;;6.10;91.40;;;;;;5034934;28;20183;-51
2021/01/24 12:43:46;;;;;;;2.63;1.83;;;5.90;90.00;;;;;;5034461;28;20537;-53
2021/01/24 12:46:12;;;;;;;2.17;1.70;;;5.90;91.10;;;;;;5031185;28;20494;-47
2021/01/24 12:48:40;;;;;;;2.00;1.80;;;5.90;91.10;;;;;;5009139;28;20200;-52